Time;durP1;ratioP1;P1;durP2;ratioP2;P2;SDS_P1;SDS_P2;PMS_P1;PMS_P2;Temp;Humidity;BMP_temperature;BMP_pressure;BME280_temperature;BME280_humidity;BME280_pressure;Samples;Min_cycle;Max_cycle;Signal;HPM_P1;HPM_P2
2024/03/24 00:01:04;;;;;;;2.60;1.40;;;;;;;1.40;100.00;97502.81;6110359;19;20015;-71
2024/03/24 00:03:04;;;;;;;2.35;1.70;;;;;;;1.40;100.00;97499.28;6109108;19;20010;-71
2024/03/24 00:05:05;;;;;;;3.55;1.73;;;;;;;1.37;100.00;97500.78;6109324;19;20014;-71
2024/03/24 00:07:06;;;;;;;4.55;1.83;;;;;;;1.41;100.00;97490.00;6107845;19;20006;-71
2024/03/24 00:09:08;;;;;;;2.70;1.63;;;;;;;1.48;100.00;97503.03;6107860;19;20042;-71
2024/03/24 00:11:09;;;;;;;4.15;1.80;;;;;;;1.53;100.00;97503.59;6109459;19;20260;-71
2024/03/24 00:13:09;;;;;;;2.30;1.77;;;;;;;1.52;100.00;97501.22;6109785;19;20011;-71
2024/03/24 00:15:09;;;;;;;4.13;2.00;;;;;;;1.48;100.00;97497.59;6108974;19;20470;-71
2024/03/24 00:17:10;;;;;;;2.10;1.60;;;;;;;1.52;100.00;97504.75;6107724;19;20099;-71
2024/03/24 00:19:10;;;;;;;1.98;1.63;;;;;;;1.54;100.00;97493.50;6109174;19;20332;-71
2024/03/24 00:21:10;;;;;;;3.65;1.77;;;;;;;1.46;100.00;97489.75;6108961;19;20086;-71
2024/03/24 00:23:11;;;;;;;2.80;1.60;;;;;;;1.52;100.00;97499.28;6109389;19;20002;-71
2024/03/24 00:25:11;;;;;;;2.47;1.67;;;;;;;1.55;100.00;97498.59;6109989;19;20025;-71
2024/03/24 00:27:11;;;;;;;4.18;2.05;;;;;;;1.53;100.00;97484.53;6107302;19;20027;-71
2024/03/24 00:29:12;;;;;;;4.40;1.90;;;;;;;1.54;100.00;97479.88;6109347;19;20010;-71
2024/03/24 00:31:12;;;;;;;4.00;1.98;;;;;;;1.53;100.00;97494.63;6109114;19;20479;-71
2024/03/24 00:33:12;;;;;;;2.90;2.05;;;;;;;1.57;100.00;97493.63;6108253;19;20023;-71
2024/03/24 00:35:13;;;;;;;2.65;1.95;;;;;;;1.60;100.00;97476.56;6108624;19;20345;-71
2024/03/24 00:37:13;;;;;;;2.28;1.80;;;;;;;1.68;100.00;97491.22;6107328;19;20541;-71
2024/03/24 00:39:13;;;;;;;3.75;1.98;;;;;;;1.71;100.00;97478.81;6108496;19;20017;-71
2024/03/24 00:41:14;;;;;;;3.17;2.17;;;;;;;1.72;100.00;97474.94;6108585;19;20010;-71
2024/03/24 00:43:14;;;;;;;3.67;1.80;;;;;;;1.75;100.00;97475.06;6106168;19;20003;-71
2024/03/24 00:45:15;;;;;;;4.35;2.00;;;;;;;1.69;100.00;97473.72;6108495;19;20007;-71
2024/03/24 00:47:15;;;;;;;3.80;2.35;;;;;;;1.62;100.00;97465.31;6106600;19;20012;-71
2024/03/24 00:49:15;;;;;;;3.03;2.08;;;;;;;1.62;100.00;97460.66;6107901;19;20371;-71
2024/03/24 00:51:15;;;;;;;3.13;2.50;;;;;;;1.52;100.00;97458.41;6109306;19;20741;-71
2024/03/24 00:53:16;;;;;;;3.35;2.10;;;;;;;1.47;100.00;97453.19;6107801;19;20014;-71
2024/03/24 00:55:16;;;;;;;2.92;2.38;;;;;;;1.45;100.00;97458.19;6107605;19;20016;-71
2024/03/24 00:57:16;;;;;;;3.72;2.35;;;;;;;1.47;100.00;97461.34;6106990;19;20026;-71
2024/03/24 00:59:17;;;;;;;4.93;2.60;;;;;;;1.54;100.00;97461.56;6108743;19;20007;-71
2024/03/24 01:01:17;;;;;;;4.35;2.40;;;;;;;1.55;100.00;97456.91;6107818;19;20246;-71
2024/03/24 01:03:17;;;;;;;4.00;2.20;;;;;;;1.55;100.00;97456.91;6109036;19;20007;-71
2024/03/24 01:05:17;;;;;;;3.75;2.38;;;;;;;1.53;100.00;97456.47;6107894;19;20342;-71
2024/03/24 01:07:18;;;;;;;3.35;2.50;;;;;;;1.49;100.00;97450.91;6106372;19;20002;-71
2024/03/24 01:09:18;;;;;;;4.03;2.35;;;;;;;1.46;100.00;97454.31;6107944;19;20006;-71
2024/03/24 01:11:18;;;;;;;3.33;2.35;;;;;;;1.50;100.00;97449.78;6108853;19;20006;-71
2024/03/24 01:13:19;;;;;;;3.50;2.58;;;;;;;1.51;100.00;97447.84;6107791;19;20006;-71
2024/03/24 01:15:19;;;;;;;4.15;2.50;;;;;;;1.50;100.00;97443.53;6106380;19;20372;-71
2024/03/24 01:17:19;;;;;;;3.22;2.42;;;;;;;1.50;100.00;97427.19;6107442;19;20009;-71
2024/03/24 01:19:20;;;;;;;3.05;2.45;;;;;;;1.46;100.00;97423.53;6106479;19;20098;-71
2024/03/24 01:21:20;;;;;;;3.38;2.65;;;;;;;1.45;100.00;97421.97;6105674;19;20015;-71
2024/03/24 01:23:20;;;;;;;5.97;2.47;;;;;;;1.45;100.00;97420.03;6109139;19;20046;-71
2024/03/24 01:25:20;;;;;;;6.47;2.38;;;;;;;1.51;100.00;97421.38;6107711;19;20338;-71
2024/03/24 01:27:21;;;;;;;6.65;2.58;;;;;;;1.57;100.00;97422.75;6106659;19;20006;-71
2024/03/24 01:29:21;;;;;;;6.03;2.50;;;;;;;1.57;100.00;97408.28;6108546;19;20038;-71
2024/03/24 01:31:21;;;;;;;2.72;2.28;;;;;;;1.54;100.00;97407.06;6108362;19;20017;-71
2024/03/24 01:33:22;;;;;;;6.70;2.47;;;;;;;1.59;100.00;97408.75;6108301;19;20002;-71
2024/03/24 01:35:22;;;;;;;3.03;2.60;;;;;;;1.58;100.00;97407.16;6107796;19;20651;-71
2024/03/24 01:37:22;;;;;;;3.67;3.08;;;;;;;1.52;100.00;97392.19;6106091;19;20035;-71
2024/03/24 01:39:23;;;;;;;2.63;2.15;;;;;;;1.47;100.00;97384.25;6107868;19;20003;-71
2024/03/24 01:41:23;;;;;;;3.38;2.55;;;;;;;1.59;100.00;97386.94;6107843;19;20006;-71
2024/03/24 01:43:24;;;;;;;3.78;2.45;;;;;;;1.56;100.00;97376.72;6106183;19;20010;-71
2024/03/24 01:45:24;;;;;;;3.13;2.13;;;;;;;1.51;100.00;97385.16;6107442;19;20082;-71
2024/03/24 01:47:24;;;;;;;5.55;2.47;;;;;;;1.50;100.00;97383.56;6106406;19;20013;-71
2024/03/24 01:49:25;;;;;;;5.57;2.80;;;;;;;1.51;100.00;97374.25;6108088;19;20521;-71
2024/03/24 01:51:25;;;;;;;4.78;2.25;;;;;;;1.59;100.00;97368.66;6107129;19;20490;-71
2024/03/24 01:53:26;;;;;;;5.10;3.08;;;;;;;1.57;100.00;97370.13;6107347;19;20471;-71
2024/03/24 01:55:26;;;;;;;3.38;2.40;;;;;;;1.58;100.00;97369.78;6107655;19;20843;-71
2024/03/24 01:57:27;;;;;;;3.72;2.42;;;;;;;1.56;100.00;97372.06;6106464;19;20066;-71
2024/03/24 01:59:27;;;;;;;4.38;2.60;;;;;;;1.56;100.00;97368.53;6106606;19;20030;-71
2024/03/24 02:01:27;;;;;;;6.15;2.70;;;;;;;1.54;100.00;97360.72;6107331;19;20011;-71
2024/03/24 02:03:28;;;;;;;2.30;2.10;;;;;;;1.59;100.00;97365.94;6106838;19;20015;-71
2024/03/24 02:05:30;;;;;;;3.63;2.03;;;;;;;1.69;100.00;97362.69;6107239;19;20463;-71
2024/03/24 02:07:30;;;;;;;2.50;2.13;;;;;;;1.80;100.00;97367.66;6105073;19;20550;-71
2024/03/24 02:09:31;;;;;;;4.90;2.20;;;;;;;1.87;100.00;97359.66;6099371;19;20013;-71
2024/03/24 02:11:31;;;;;;;2.88;2.33;;;;;;;1.90;100.00;97353.50;6106482;19;20014;-71
2024/03/24 02:13:31;;;;;;;4.22;2.28;;;;;;;2.00;100.00;97350.28;6106561;19;20785;-71
2024/03/24 02:15:32;;;;;;;4.30;2.78;;;;;;;2.01;100.00;97349.16;6106612;19;20338;-71
2024/03/24 02:17:32;;;;;;;5.35;2.13;;;;;;;2.04;100.00;97353.09;6105515;19;20006;-71
2024/03/24 02:19:32;;;;;;;3.58;2.40;;;;;;;2.04;100.00;97344.91;6106218;19;20015;-71
2024/03/24 02:21:34;;;;;;;3.35;2.60;;;;;;;2.06;100.00;97337.19;6107078;19;20074;-71
2024/03/24 02:23:34;;;;;;;4.53;2.72;;;;;;;2.16;100.00;97340.19;6107204;19;20440;-71
2024/03/24 02:25:35;;;;;;;5.05;2.58;;;;;;;2.17;100.00;97333.59;6105405;19;20019;-71
2024/03/24 02:27:35;;;;;;;4.78;2.28;;;;;;;2.17;100.00;97330.88;6104379;19;20459;-71
2024/03/24 02:29:35;;;;;;;4.60;2.40;;;;;;;2.14;100.00;97326.09;6107278;19;20027;-71
2024/03/24 02:31:36;;;;;;;3.92;2.35;;;;;;;2.11;100.00;97326.81;6109103;19;20010;-71
2024/03/24 02:33:36;;;;;;;3.33;2.90;;;;;;;2.18;100.00;97320.75;6112427;19;20023;-71
2024/03/24 02:35:40;;;;;;;4.00;2.50;;;;;;;2.18;100.00;97318.81;6111063;19;20005;-71
2024/03/24 02:37:40;;;;;;;6.30;2.85;;;;;;;2.20;100.00;97319.25;6108817;19;20002;-71
2024/03/24 02:39:41;;;;;;;4.10;2.33;;;;;;;2.24;100.00;97301.03;6112400;19;20481;-71
2024/03/24 02:41:41;;;;;;;3.80;2.17;;;;;;;2.27;100.00;97307.72;6111884;19;20006;-71
2024/03/24 02:43:41;;;;;;;3.40;2.67;;;;;;;2.31;100.00;97302.34;6109928;19;20006;-71
2024/03/24 02:45:42;;;;;;;3.90;2.60;;;;;;;2.38;100.00;97300.56;6112216;19;20251;-71
2024/03/24 02:47:42;;;;;;;8.15;2.83;;;;;;;2.39;100.00;97293.97;6109741;19;20320;-71
2024/03/24 02:49:43;;;;;;;3.00;2.25;;;;;;;2.42;100.00;97304.19;6110511;19;20689;-71
2024/03/24 02:51:43;;;;;;;5.43;2.50;;;;;;;2.42;100.00;97289.75;6111792;19;20074;-71
2024/03/24 02:53:43;;;;;;;3.55;2.35;;;;;;;2.47;100.00;97289.47;6111404;19;20454;-71
2024/03/24 02:55:48;;;;;;;6.07;2.47;;;;;;;2.39;100.00;97291.22;6111565;19;20965;-71
2024/03/24 02:57:48;;;;;;;4.72;2.70;;;;;;;2.39;100.00;97284.97;6109890;19;20487;-71
2024/03/24 02:59:48;;;;;;;5.35;2.97;;;;;;;2.46;100.00;97282.44;6111341;19;20269;-71
2024/03/24 03:01:48;;;;;;;4.35;2.83;;;;;;;2.46;100.00;97287.88;6108305;19;20021;-71
2024/03/24 03:03:49;;;;;;;4.63;2.70;;;;;;;2.42;100.00;97292.50;6110340;19;21476;-71
2024/03/24 03:05:50;;;;;;;7.00;3.00;;;;;;;2.36;100.00;97281.03;6109850;19;20007;-71
2024/03/24 03:07:50;;;;;;;4.72;2.67;;;;;;;2.36;100.00;97282.97;6109809;19;20425;-71
2024/03/24 03:09:51;;;;;;;5.03;2.50;;;;;;;2.35;100.00;97281.38;6104923;19;20029;-71
2024/03/24 03:11:51;;;;;;;5.35;2.40;;;;;;;2.34;100.00;97285.28;6103221;19;20566;-71
2024/03/24 03:13:51;;;;;;;3.13;2.40;;;;;;;2.33;100.00;97287.22;6101810;19;20413;-71
2024/03/24 03:15:51;;;;;;;5.78;2.63;;;;;;;2.30;100.00;97279.72;6101864;19;20347;-71
2024/03/24 03:17:52;;;;;;;3.88;2.40;;;;;;;2.39;100.00;97283.03;6102022;19;20227;-71
2024/03/24 03:19:52;;;;;;;4.60;2.60;;;;;;;2.45;100.00;97286.31;6103455;19;20014;-71
2024/03/24 03:21:53;;;;;;;4.00;2.75;;;;;;;2.43;100.00;97283.94;6102213;19;20483;-71
2024/03/24 03:23:53;;;;;;;4.00;2.75;;;;;;;2.45;100.00;97297.22;6102673;19;20495;-71
2024/03/24 03:25:53;;;;;;;3.60;2.67;;;;;;;2.44;100.00;97293.72;6101892;19;20094;-71
2024/03/24 03:27:54;;;;;;;4.95;2.75;;;;;;;2.46;100.00;97282.44;6101452;19;20010;-71
2024/03/24 03:29:54;;;;;;;6.07;2.60;;;;;;;2.53;100.00;97288.06;6101952;19;20024;-71
2024/03/24 03:31:54;;;;;;;4.07;2.50;;;;;;;2.52;100.00;97286.47;6102335;19;20454;-71
2024/03/24 03:33:54;;;;;;;3.88;2.38;;;;;;;2.49;100.00;97288.00;6101974;19;20025;-71
2024/03/24 03:35:55;;;;;;;11.40;2.70;;;;;;;2.46;100.00;97277.75;6102319;19;20010;-71
2024/03/24 03:37:55;;;;;;;5.00;3.28;;;;;;;2.47;100.00;97276.59;6100937;19;20327;-71
2024/03/24 03:39:55;;;;;;;4.40;2.60;;;;;;;2.44;100.00;97277.31;6102340;19;20006;-71
2024/03/24 03:41:56;;;;;;;6.47;2.58;;;;;;;2.40;100.00;97265.53;6101818;19;20007;-71
2024/03/24 03:43:56;;;;;;;5.97;2.70;;;;;;;2.43;100.00;97272.22;6099085;19;20010;-71
2024/03/24 03:45:56;;;;;;;4.50;2.50;;;;;;;2.44;100.00;97268.34;6101001;19;20487;-71
2024/03/24 03:47:57;;;;;;;2.92;1.90;;;;;;;2.44;100.00;97255.50;6100723;19;20030;-71
2024/03/24 03:49:57;;;;;;;5.35;2.83;;;;;;;2.42;100.00;97262.47;6101573;19;20010;-70
2024/03/24 03:51:58;;;;;;;5.40;2.65;;;;;;;2.38;100.00;97256.91;6103071;19;20002;-71
2024/03/24 03:53:58;;;;;;;3.33;2.30;;;;;;;2.48;100.00;97256.38;6101511;19;20002;-70
2024/03/24 03:55:58;;;;;;;3.75;2.17;;;;;;;2.53;100.00;97244.38;6101464;19;20438;-70
2024/03/24 03:58:02;;;;;;;3.00;2.10;;;;;;;2.48;100.00;97245.47;6101310;19;19999;-70
2024/03/24 04:00:10;;;;;;;5.05;2.33;;;;;;;2.48;100.00;97236.44;6101392;19;20383;-71
2024/03/24 04:02:11;;;;;;;6.65;2.88;;;;;;;2.42;100.00;97226.97;6101108;19;20010;-70
2024/03/24 04:04:11;;;;;;;4.47;2.10;;;;;;;2.40;100.00;97231.97;6102277;19;20017;-70
2024/03/24 04:06:12;;;;;;;6.53;2.30;;;;;;;2.35;100.00;97224.84;6099834;19;20002;-70
2024/03/24 04:08:12;;;;;;;3.67;2.42;;;;;;;2.35;100.00;97241.25;6101649;19;20011;-70
2024/03/24 04:10:12;;;;;;;3.42;2.40;;;;;;;2.33;100.00;97240.00;6105268;19;20003;-71
2024/03/24 04:12:12;;;;;;;4.20;2.05;;;;;;;2.28;100.00;97249.25;6108578;19;20346;-70
2024/03/24 04:14:13;;;;;;;3.35;1.90;;;;;;;2.23;100.00;97239.41;6109634;19;20463;-70
2024/03/24 04:16:13;;;;;;;4.05;1.90;;;;;;;2.21;100.00;97238.94;6107698;19;20078;-70
2024/03/24 04:18:13;;;;;;;6.53;2.17;;;;;;;2.20;100.00;97239.31;6107751;19;20006;-70
2024/03/24 04:20:14;;;;;;;3.75;2.15;;;;;;;2.17;100.00;97231.84;6109782;19;20459;-70
2024/03/24 04:22:14;;;;;;;3.85;2.30;;;;;;;2.18;100.00;97230.69;6108281;19;20018;-70
2024/03/24 04:24:14;;;;;;;7.13;2.15;;;;;;;2.15;100.00;97231.38;6109366;19;20011;-70
2024/03/24 04:26:15;;;;;;;2.45;2.08;;;;;;;2.15;100.00;97225.91;6108773;19;20838;-70
2024/03/24 04:28:15;;;;;;;2.42;1.90;;;;;;;2.15;100.00;97218.56;6108887;19;20006;-71
2024/03/24 04:30:15;;;;;;;4.07;2.33;;;;;;;2.21;100.00;97224.50;6107915;19;20002;-71
2024/03/24 04:32:16;;;;;;;6.85;2.22;;;;;;;2.25;100.00;97218.00;6109407;19;20538;-70
2024/03/24 04:34:16;;;;;;;2.97;1.77;;;;;;;2.31;100.00;97223.97;6107901;19;20455;-70
2024/03/24 04:36:16;;;;;;;4.90;2.30;;;;;;;2.28;100.00;97223.91;6108444;19;20036;-71
2024/03/24 04:38:17;;;;;;;3.92;2.03;;;;;;;2.32;100.00;97222.03;6107513;19;20003;-71
2024/03/24 04:40:18;;;;;;;3.10;1.92;;;;;;;2.37;100.00;97227.22;6108807;19;20070;-70
2024/03/24 04:42:19;;;;;;;3.10;2.00;;;;;;;2.44;100.00;97232.84;6108589;19;20017;-70
2024/03/24 04:44:19;;;;;;;11.20;2.97;;;;;;;2.49;100.00;97225.19;6106198;19;20918;-70
2024/03/24 04:46:20;;;;;;;5.75;2.83;;;;;;;2.48;100.00;97228.25;6107223;19;20248;-70
2024/03/24 04:48:21;;;;;;;5.30;2.25;;;;;;;2.51;100.00;97222.09;6108537;19;20010;-70
2024/03/24 04:50:21;;;;;;;4.38;2.20;;;;;;;2.49;100.00;97222.47;6108610;19;20150;-70
2024/03/24 04:52:22;;;;;;;4.13;2.50;;;;;;;2.49;100.00;97216.22;6108378;19;20562;-70
2024/03/24 04:54:22;;;;;;;4.18;2.28;;;;;;;2.45;100.00;97220.78;6107992;19;20046;-70
2024/03/24 04:56:23;;;;;;;2.50;2.30;;;;;;;2.51;100.00;97208.44;6106265;19;20005;-70
2024/03/24 04:58:23;;;;;;;3.67;2.30;;;;;;;2.54;100.00;97213.19;6108072;19;19998;-70
2024/03/24 05:00:25;;;;;;;6.07;2.88;;;;;;;2.52;100.00;97212.75;6108565;19;20030;-70
2024/03/24 05:02:25;;;;;;;4.15;2.20;;;;;;;2.49;100.00;97202.56;6109102;19;20021;-70
2024/03/24 05:04:25;;;;;;;6.47;2.33;;;;;;;2.46;100.00;97209.50;6107827;19;20014;-70
2024/03/24 05:06:27;;;;;;;4.22;2.28;;;;;;;2.44;100.00;97203.63;6106475;19;20455;-70
2024/03/24 05:08:28;;;;;;;4.30;2.47;;;;;;;2.42;100.00;97203.19;6108482;19;20355;-70
2024/03/24 05:10:28;;;;;;;6.50;2.70;;;;;;;2.42;100.00;97208.66;6108796;19;20438;-70
2024/03/24 05:12:29;;;;;;;3.40;2.25;;;;;;;2.40;100.00;97197.31;6107891;19;20082;-70
2024/03/24 05:14:29;;;;;;;4.32;2.42;;;;;;;2.43;100.00;97188.38;6107851;19;20396;-70
2024/03/24 05:16:31;;;;;;;4.05;2.88;;;;;;;2.43;100.00;97193.06;6107005;19;20091;-70
2024/03/24 05:18:32;;;;;;;4.10;2.53;;;;;;;2.44;100.00;97191.91;6108142;19;20389;-70
2024/03/24 05:20:36;;;;;;;4.15;2.72;;;;;;;2.46;100.00;97184.94;6105318;19;20077;-70
2024/03/24 05:22:37;;;;;;;3.50;2.42;;;;;;;2.44;100.00;97189.97;6107989;19;20011;-70
2024/03/24 05:24:38;;;;;;;5.60;2.90;;;;;;;2.47;100.00;97183.78;6109023;19;20476;-70
2024/03/24 05:26:38;;;;;;;5.10;2.20;;;;;;;2.49;100.00;97178.00;6107389;19;20007;-70
2024/03/24 05:28:38;;;;;;;5.45;2.85;;;;;;;2.51;100.00;97181.16;6107847;19;20021;-70
2024/03/24 05:30:39;;;;;;;3.90;2.55;;;;;;;2.44;100.00;97178.25;6109368;19;20482;-71
2024/03/24 05:32:39;;;;;;;6.10;2.67;;;;;;;2.39;100.00;97184.78;6107724;19;20010;-70
2024/03/24 05:34:43;;;;;;;3.33;2.20;;;;;;;2.43;100.00;97176.69;6108834;19;20026;-70
2024/03/24 05:36:44;;;;;;;3.42;2.50;;;;;;;2.39;100.00;97173.84;6106190;19;20434;-70
2024/03/24 05:38:44;;;;;;;4.80;2.30;;;;;;;2.37;100.00;97172.63;6109606;19;20074;-70
2024/03/24 05:40:44;;;;;;;5.03;2.55;;;;;;;2.38;100.00;97168.75;6107298;19;20010;-70
2024/03/24 05:42:45;;;;;;;3.55;2.53;;;;;;;2.38;100.00;97168.75;6105849;19;20033;-70
2024/03/24 05:44:45;;;;;;;5.20;2.50;;;;;;;2.39;100.00;97164.88;6108508;19;20011;-70
2024/03/24 05:46:45;;;;;;;3.85;2.50;;;;;;;2.47;100.00;97166.63;6107100;19;20014;-70
2024/03/24 05:48:45;;;;;;;5.90;2.40;;;;;;;2.42;100.00;97172.38;6108571;19;20018;-70
2024/03/24 05:50:46;;;;;;;4.28;2.38;;;;;;;2.42;100.00;97175.88;6109054;19;20011;-70
2024/03/24 05:52:46;;;;;;;3.90;2.85;;;;;;;2.45;100.00;97174.38;6108717;19;20014;-70
2024/03/24 05:54:47;;;;;;;4.30;2.92;;;;;;;2.43;100.00;97177.47;6108668;19;20379;-70
2024/03/24 05:56:47;;;;;;;4.95;2.85;;;;;;;2.47;100.00;97170.13;6106017;19;20007;-70
2024/03/24 05:58:47;;;;;;;4.75;2.67;;;;;;;2.50;100.00;97172.16;6108479;19;20014;-70
2024/03/24 06:00:48;;;;;;;5.35;2.72;;;;;;;2.51;100.00;97165.56;6108352;19;20017;-70
2024/03/24 06:02:48;;;;;;;3.50;2.60;;;;;;;2.49;100.00;97162.41;6108464;19;20043;-70
2024/03/24 06:04:48;;;;;;;4.18;3.03;;;;;;;2.49;100.00;97167.06;6106132;19;20014;-70
2024/03/24 06:06:48;;;;;;;4.47;2.63;;;;;;;2.52;100.00;97178.06;6108595;19;20014;-70
2024/03/24 06:08:49;;;;;;;3.40;2.50;;;;;;;2.57;100.00;97179.72;6109063;19;20337;-70
2024/03/24 06:10:49;;;;;;;3.97;2.50;;;;;;;2.53;100.00;97176.13;6109863;19;20014;-70
2024/03/24 06:12:49;;;;;;;3.63;2.35;;;;;;;2.53;100.00;97174.19;6112411;19;20353;-70
2024/03/24 06:14:50;;;;;;;4.28;2.50;;;;;;;2.55;100.00;97171.09;6112712;19;20010;-71
2024/03/24 06:16:50;;;;;;;4.15;2.60;;;;;;;2.51;100.00;97171.03;6111912;19;20523;-71
2024/03/24 06:18:52;;;;;;;6.30;2.08;;;;;;;2.61;100.00;97174.34;6113088;19;20010;-70
2024/03/24 06:20:53;;;;;;;3.95;2.78;;;;;;;2.54;100.00;97166.78;6112199;19;20007;-70
2024/03/24 06:22:53;;;;;;;4.55;2.70;;;;;;;2.48;100.00;97166.28;6112186;19;20037;-70
2024/03/24 06:24:53;;;;;;;3.55;2.30;;;;;;;2.48;100.00;97177.19;6112660;19;20014;-70
2024/03/24 06:26:54;;;;;;;4.22;2.60;;;;;;;2.48;100.00;97173.66;6111367;19;20014;-70
2024/03/24 06:28:54;;;;;;;6.60;2.28;;;;;;;2.46;100.00;97174.00;6112997;19;20034;-70
2024/03/24 06:30:55;;;;;;;5.32;2.25;;;;;;;2.51;100.00;97170.22;6113361;19;20301;-70
2024/03/24 06:32:56;;;;;;;6.30;3.50;;;;;;;2.55;100.00;97168.34;6112546;19;20023;-70
2024/03/24 06:34:56;;;;;;;3.72;2.70;;;;;;;2.61;100.00;97168.88;6112364;19;20011;-71
2024/03/24 06:36:56;;;;;;;7.47;2.50;;;;;;;2.69;100.00;97168.66;6111063;19;20466;-70
2024/03/24 06:38:57;;;;;;;4.45;2.50;;;;;;;2.88;100.00;97162.41;6112664;19;20360;-70
2024/03/24 06:40:57;;;;;;;3.85;2.47;;;;;;;3.04;100.00;97160.41;6112655;19;20019;-70
2024/03/24 06:43:00;;;;;;;3.70;2.75;;;;;;;3.17;100.00;97169.25;6110820;19;20032;-70
2024/03/24 06:45:08;;;;;;;3.60;2.42;;;;;;;3.26;100.00;97166.28;6112420;19;20312;-70
2024/03/24 06:47:08;;;;;;;5.57;2.95;;;;;;;3.40;100.00;97169.28;6111131;19;19998;-70
2024/03/24 06:49:08;;;;;;;4.47;2.30;;;;;;;3.45;100.00;97166.25;6112014;19;20006;-70
2024/03/24 06:51:09;;;;;;;3.30;2.15;;;;;;;3.53;100.00;97162.50;6111951;19;19998;-70
2024/03/24 06:53:09;;;;;;;3.22;2.60;;;;;;;3.53;100.00;97164.44;6109712;19;20032;-70
2024/03/24 06:55:10;;;;;;;5.53;2.30;;;;;;;3.49;100.00;97160.84;6112382;19;20010;-70
2024/03/24 06:57:11;;;;;;;2.67;2.10;;;;;;;3.48;100.00;97156.53;6109943;19;20038;-70
2024/03/24 06:59:11;;;;;;;3.50;2.00;;;;;;;3.45;100.00;97151.78;6112130;19;20316;-70
2024/03/24 07:01:12;;;;;;;3.80;2.60;;;;;;;3.40;100.00;97163.03;6112609;19;20005;-70
2024/03/24 07:03:12;;;;;;;5.50;2.72;;;;;;;3.42;100.00;97153.31;6111565;19;20010;-70
2024/03/24 07:05:12;;;;;;;4.70;2.42;;;;;;;3.43;100.00;97160.34;6111976;19;19995;-70
2024/03/24 07:07:13;;;;;;;4.22;2.60;;;;;;;3.48;100.00;97151.06;6109992;19;19999;-70
2024/03/24 07:09:13;;;;;;;3.47;2.40;;;;;;;3.56;100.00;97152.78;6101667;19;20013;-70
2024/03/24 07:11:15;;;;;;;3.00;2.30;;;;;;;3.61;100.00;97145.03;6110990;19;20007;-70
2024/03/24 07:13:15;;;;;;;3.97;2.47;;;;;;;3.68;100.00;97144.38;6112014;19;20465;-70
2024/03/24 07:15:15;;;;;;;4.43;2.08;;;;;;;3.73;100.00;97152.28;6111476;19;20006;-70
2024/03/24 07:17:15;;;;;;;3.20;2.15;;;;;;;3.73;100.00;97152.28;6109091;19;20030;-70
2024/03/24 07:19:16;;;;;;;2.90;2.17;;;;;;;3.79;100.00;97144.56;6110931;19;20367;-70
2024/03/24 07:21:17;;;;;;;4.70;2.25;;;;;;;3.83;100.00;97145.41;6109926;19;20541;-70
2024/03/24 07:23:17;;;;;;;3.95;2.20;;;;;;;3.85;100.00;97154.84;6111033;19;20477;-70
2024/03/24 07:25:17;;;;;;;3.28;2.40;;;;;;;3.80;100.00;97151.59;6110827;19;20006;-70
2024/03/24 07:27:18;;;;;;;3.22;2.20;;;;;;;3.79;100.00;97158.22;6108989;19;20011;-70
2024/03/24 07:29:18;;;;;;;2.63;2.00;;;;;;;3.74;100.00;97156.59;6110018;19;20011;-70
2024/03/24 07:31:19;;;;;;;2.70;2.00;;;;;;;3.71;100.00;97145.59;6107531;19;20267;-70
2024/03/24 07:33:19;;;;;;;3.80;2.72;;;;;;;3.57;100.00;97162.56;6111812;19;20863;-70
2024/03/24 07:35:19;;;;;;;4.53;2.60;;;;;;;3.47;100.00;97166.66;6110211;19;20027;-70
2024/03/24 07:37:19;;;;;;;3.28;2.13;;;;;;;3.32;100.00;97171.09;6108481;19;20023;-70
2024/03/24 07:39:20;;;;;;;3.35;2.20;;;;;;;3.23;100.00;97170.53;6109733;19;20038;-70
2024/03/24 07:41:20;;;;;;;4.30;2.60;;;;;;;3.09;100.00;97181.19;6110638;19;20036;-70
2024/03/24 07:43:21;;;;;;;3.28;2.40;;;;;;;2.93;100.00;97178.53;6107954;19;21085;-70
2024/03/24 07:45:21;;;;;;;2.80;2.05;;;;;;;2.81;100.00;97176.75;6111029;19;20010;-70
2024/03/24 07:47:25;;;;;;;5.70;2.10;;;;;;;2.80;100.00;97175.13;6109910;19;20128;-70
2024/03/24 07:49:25;;;;;;;4.50;2.67;;;;;;;2.78;100.00;97174.72;6111218;19;20380;-70
2024/03/24 07:51:30;;;;;;;4.95;2.15;;;;;;;2.74;100.00;97176.59;6110586;19;20022;-70
2024/03/24 07:53:31;;;;;;;2.92;2.25;;;;;;;2.72;100.00;97175.34;6109013;19;20637;-70
2024/03/24 07:55:31;;;;;;;4.18;2.45;;;;;;;2.72;100.00;97167.94;6110618;19;20007;-70
2024/03/24 07:57:31;;;;;;;4.00;2.90;;;;;;;2.75;100.00;97169.19;6109903;19;20589;-70
2024/03/24 07:59:32;;;;;;;2.75;2.22;;;;;;;2.77;100.00;97164.94;6108980;19;20002;-71
2024/03/24 08:01:32;;;;;;;3.25;2.40;;;;;;;2.79;100.00;97164.56;6105294;19;20010;-71
2024/03/24 08:03:32;;;;;;;3.30;1.70;;;;;;;2.86;100.00;97167.44;6110291;19;20010;-71
2024/03/24 08:05:33;;;;;;;4.13;2.45;;;;;;;2.90;100.00;97164.81;6110637;19;20034;-70
2024/03/24 08:07:33;;;;;;;3.55;2.20;;;;;;;2.95;100.00;97170.75;6109152;19;20006;-71
2024/03/24 08:09:33;;;;;;;3.13;2.20;;;;;;;2.98;100.00;97164.59;6104159;19;20347;-71
2024/03/24 08:11:34;;;;;;;3.72;2.08;;;;;;;3.00;100.00;97164.22;6100015;19;20006;-70
2024/03/24 08:13:34;;;;;;;2.83;2.05;;;;;;;3.00;100.00;97162.28;6101330;19;20010;-70
2024/03/24 08:15:35;;;;;;;2.83;1.80;;;;;;;3.00;100.00;97165.00;6100649;19;20011;-70
2024/03/24 08:17:35;;;;;;;6.40;2.75;;;;;;;3.07;100.00;97159.69;6099621;19;20007;-71
2024/03/24 08:19:35;;;;;;;2.75;2.15;;;;;;;3.16;100.00;97159.47;6101760;19;20525;-70
2024/03/24 08:21:36;;;;;;;3.33;2.47;;;;;;;3.22;100.00;97154.47;6100830;19;20010;-70
2024/03/24 08:23:37;;;;;;;3.17;2.30;;;;;;;3.25;100.00;97157.31;6101267;19;20010;-70
2024/03/24 08:25:37;;;;;;;2.58;2.17;;;;;;;3.32;100.00;97160.16;6101978;19;20007;-70
2024/03/24 08:27:37;;;;;;;4.15;2.30;;;;;;;3.37;100.00;97151.66;6099619;19;20019;-70
2024/03/24 08:29:38;;;;;;;5.00;2.50;;;;;;;3.45;100.00;97157.25;6100912;19;20006;-70
2024/03/24 08:31:38;;;;;;;3.10;2.08;;;;;;;3.48;100.00;97151.88;6101941;19;20545;-70
2024/03/24 08:33:38;;;;;;;3.92;2.03;;;;;;;3.54;100.00;97153.13;6101353;19;20006;-70
2024/03/24 08:35:39;;;;;;;3.75;2.50;;;;;;;3.57;100.00;97157.09;6101865;19;20323;-70
2024/03/24 08:37:39;;;;;;;2.72;1.60;;;;;;;3.59;100.00;97155.56;6100003;19;20018;-70
2024/03/24 08:39:39;;;;;;;5.30;3.33;;;;;;;3.64;100.00;97154.47;6101543;19;20027;-70
2024/03/24 08:41:39;;;;;;;5.00;2.92;;;;;;;3.73;100.00;97157.78;6101472;19;20503;-70
2024/03/24 08:43:40;;;;;;;3.80;2.55;;;;;;;3.80;100.00;97157.88;6097264;19;20027;-70
2024/03/24 08:45:40;;;;;;;3.75;2.08;;;;;;;3.85;100.00;97165.00;6098108;19;20663;-70
2024/03/24 08:47:40;;;;;;;2.28;1.80;;;;;;;3.86;100.00;97170.09;6100158;19;20349;-70
2024/03/24 08:49:41;;;;;;;2.10;1.60;;;;;;;3.82;100.00;97163.00;6099828;19;20031;-70
2024/03/24 08:51:42;;;;;;;2.80;1.95;;;;;;;3.82;100.00;97165.72;6101023;19;20002;-70
2024/03/24 08:53:42;;;;;;;3.55;1.92;;;;;;;3.78;100.00;97151.97;6100873;19;20009;-70
2024/03/24 08:55:42;;;;;;;3.03;1.50;;;;;;;3.73;100.00;97160.50;6101208;19;20460;-70
2024/03/24 08:57:44;;;;;;;2.90;2.20;;;;;;;3.76;100.00;97161.72;6100368;19;20553;-70
2024/03/24 08:59:44;;;;;;;2.63;2.13;;;;;;;3.74;100.00;97150.34;6101433;19;20467;-70
2024/03/24 09:01:44;;;;;;;2.67;1.60;;;;;;;3.82;100.00;97150.09;6101205;19;20282;-70
2024/03/24 09:03:45;;;;;;;3.05;1.60;;;;;;;3.83;100.00;97153.63;6101976;19;20013;-70
2024/03/24 09:05:45;;;;;;;2.15;1.95;;;;;;;3.86;100.00;97155.63;6101383;19;20009;-70
2024/03/24 09:07:45;;;;;;;2.85;2.30;;;;;;;3.84;100.00;97163.41;6099484;19;20010;-70
2024/03/24 09:09:46;;;;;;;1.85;1.63;;;;;;;3.87;100.00;97166.19;6104476;19;20014;-70
2024/03/24 09:11:46;;;;;;;6.57;3.13;;;;;;;3.91;100.00;97155.31;6109489;19;20442;-71
2024/03/24 09:13:46;;;;;;;2.78;1.88;;;;;;;3.97;100.00;97147.56;6108973;19;20010;-70
2024/03/24 09:15:47;;;;;;;3.67;2.70;;;;;;;3.93;100.00;97151.06;6109407;19;20019;-71
2024/03/24 09:17:49;;;;;;;2.95;2.00;;;;;;;3.96;100.00;97149.53;6107447;19;20070;-70
2024/03/24 09:19:49;;;;;;;4.07;1.63;;;;;;;3.99;100.00;97143.34;6108608;19;20020;-70
2024/03/24 09:21:49;;;;;;;2.33;1.75;;;;;;;3.97;100.00;97134.69;6107599;19;20010;-70
2024/03/24 09:23:49;;;;;;;1.55;1.35;;;;;;;3.89;100.00;97143.97;6108745;19;20569;-70
2024/03/24 09:25:50;;;;;;;3.58;2.10;;;;;;;3.94;100.00;97130.75;6108590;19;20011;-70
2024/03/24 09:27:51;;;;;;;3.13;1.50;;;;;;;4.00;100.00;97127.69;6106509;19;20007;-70